Terminal Aerodrome Forecast
Issued by NWS Duluth, MN

Home | Current Version | Previous Version | Text Only | Print | Product List | Glossary On
Versions: 1 2 3 4 5 6 7 8 9 10 11 12 13 14 15 16 17 18 19 20 21 22 23 24 25
000
FTUS43 KDLH 211100
TAFINL
TAF
KINL 211130Z 2112/2212 18006KT P6SM BKN090
     FM211500 20012G25KT P6SM SCT020 BKN080
     FM220300 22010KT P6SM BKN025 WS020/23040KT
     FM220800 22008KT 4SM -FZDZ BR OVC003 WS020/23040KT=

USA.gov is the U.S. government's official web portal to all federal, state and local government web resources and services.